Time;durP1;ratioP1;P1;durP2;ratioP2;P2;SDS_P1;SDS_P2;PMS_P1;PMS_P2;Temp;Humidity;BMP_temperature;BMP_pressure;BME280_temperature;BME280_humidity;BME280_pressure;Samples;Min_cycle;Max_cycle;Signal;HPM_P1;HPM_P2
2022/09/12 00:01:59;;;;;;;14.73;13.43;;;14.00;99.90;;;;;;7393534;19;20023;-81
2022/09/12 00:04:25;;;;;;;16.38;12.70;;;13.90;99.90;;;;;;7389446;19;20010;-81
2022/09/12 00:06:52;;;;;;;14.18;12.88;;;13.90;99.90;;;;;;7395551;19;20030;-81
2022/09/12 00:09:17;;;;;;;14.82;13.45;;;13.90;99.90;;;;;;7392785;19;20027;-81
2022/09/12 00:11:45;;;;;;;14.05;12.57;;;13.80;99.90;;;;;;7394624;19;20006;-81
2022/09/12 00:14:15;;;;;;;15.27;13.77;;;13.80;99.90;;;;;;7392224;19;20015;-81
2022/09/12 00:16:41;;;;;;;15.27;13.70;;;13.80;99.90;;;;;;7393835;19;20023;-81
2022/09/12 00:19:08;;;;;;;16.13;14.63;;;13.80;99.90;;;;;;7392554;19;20022;-81
2022/09/12 00:21:35;;;;;;;15.70;14.20;;;13.80;99.90;;;;;;7391802;19;20035;-81
2022/09/12 00:24:01;;;;;;;15.48;14.07;;;13.80;99.90;;;;;;7390741;19;20025;-81
2022/09/12 00:26:28;;;;;;;16.33;14.57;;;13.80;99.90;;;;;;7394613;19;20035;-81
2022/09/12 00:28:53;;;;;;;14.43;13.07;;;13.80;99.90;;;;;;7393566;19;20085;-81
2022/09/12 00:31:22;;;;;;;15.43;14.05;;;13.80;99.90;;;;;;7392133;19;20035;-81
2022/09/12 00:33:49;;;;;;;16.55;15.05;;;13.80;99.90;;;;;;7392092;19;20014;-81
2022/09/12 00:36:18;;;;;;;15.85;14.40;;;13.80;99.90;;;;;;7394992;19;20022;-80
2022/09/12 00:38:45;;;;;;;15.73;14.30;;;13.80;99.90;;;;;;7393662;19;20018;-81
2022/09/12 00:41:19;;;;;;;15.45;14.05;;;13.80;99.90;;;;;;7393089;19;20026;-80
2022/09/12 00:43:49;;;;;;;15.93;14.55;;;13.70;99.90;;;;;;7391038;19;20018;-81
2022/09/12 00:46:26;;;;;;;15.85;14.40;;;13.70;99.90;;;;;;7391487;19;20035;-81
2022/09/12 00:49:03;;;;;;;15.68;14.27;;;13.70;99.90;;;;;;7390394;19;20010;-81
2022/09/12 00:51:31;;;;;;;15.50;14.10;;;13.70;99.90;;;;;;7390743;19;20483;-81
2022/09/12 00:54:01;;;;;;;16.17;14.68;;;13.70;99.90;;;;;;7392747;19;20085;-81
2022/09/12 00:56:27;;;;;;;16.23;14.73;;;13.70;99.90;;;;;;7392630;19;20022;-81
2022/09/12 00:59:08;;;;;;;16.75;15.10;;;13.70;99.90;;;;;;7391752;19;20007;-80
2022/09/12 01:01:35;;;;;;;16.48;14.90;;;13.70;99.90;;;;;;7391739;19;20034;-81
2022/09/12 01:04:01;;;;;;;16.15;14.65;;;13.70;99.90;;;;;;7393971;19;20126;-81
2022/09/12 01:06:34;;;;;;;16.70;15.00;;;13.70;99.90;;;;;;7387489;19;20056;-81
2022/09/12 01:09:03;;;;;;;16.70;15.07;;;13.70;99.90;;;;;;7393352;19;20068;-81
2022/09/12 01:11:33;;;;;;;16.88;15.18;;;13.70;99.90;;;;;;7393574;19;20006;-81
2022/09/12 01:13:59;;;;;;;17.40;15.73;;;13.60;99.90;;;;;;7397325;19;20121;-82
2022/09/12 01:16:24;;;;;;;17.48;15.77;;;13.60;99.90;;;;;;7401393;19;20514;-81
2022/09/12 01:19:23;;;;;;;16.98;15.38;;;13.60;99.90;;;;;;7399413;19;20011;-81
2022/09/12 01:22:30;;;;;;;18.25;16.45;;;13.60;99.90;;;;;;7398262;19;20036;-81
2022/09/12 01:25:14;;;;;;;17.38;15.77;;;13.60;99.90;;;;;;7394960;19;20112;-81
2022/09/12 01:28:18;;;;;;;17.60;15.90;;;13.50;99.90;;;;;;7398394;19;20102;-81
2022/09/12 01:31:05;;;;;;;17.23;15.45;;;13.50;99.90;;;;;;7399607;19;20014;-81
2022/09/12 01:34:05;;;;;;;18.85;17.02;;;13.40;99.90;;;;;;7400383;19;20023;-81
2022/09/12 01:36:40;;;;;;;18.45;16.73;;;13.40;99.90;;;;;;7398844;19;20014;-81
2022/09/12 01:39:23;;;;;;;19.90;17.83;;;13.40;99.90;;;;;;7397762;19;20010;-81
2022/09/12 01:42:09;;;;;;;20.00;18.10;;;13.40;99.90;;;;;;7398823;19;20503;-81
2022/09/12 01:44:57;;;;;;;19.83;17.92;;;13.30;99.90;;;;;;7396712;19;20086;-81
2022/09/12 01:47:38;;;;;;;20.08;18.00;;;13.30;99.90;;;;;;7399224;19;20070;-81
2022/09/12 01:50:18;;;;;;;19.83;17.85;;;13.20;99.90;;;;;;7396464;19;20010;-81
2022/09/12 01:52:57;;;;;;;19.55;17.75;;;13.20;99.90;;;;;;7397599;19;20015;-81
2022/09/12 01:55:31;;;;;;;20.80;18.83;;;13.20;99.90;;;;;;7398746;19;20022;-81
2022/09/12 01:58:37;;;;;;;21.55;19.25;;;13.10;99.90;;;;;;7398819;19;20010;-81
2022/09/12 02:01:19;;;;;;;20.80;18.85;;;13.10;99.90;;;;;;7397781;19;20021;-81
2022/09/12 02:03:55;;;;;;;21.83;19.67;;;13.10;99.90;;;;;;7396811;19;20017;-81
2022/09/12 02:06:48;;;;;;;21.63;19.42;;;13.10;99.90;;;;;;7393035;19;20025;-81
2022/09/12 02:09:28;;;;;;;22.45;20.20;;;13.00;99.90;;;;;;7400771;19;20124;-81
2022/09/12 02:11:59;;;;;;;22.02;19.92;;;13.00;99.90;;;;;;7396202;19;20053;-81
2022/09/12 02:14:29;;;;;;;21.90;19.63;;;13.10;99.90;;;;;;7397336;19;20364;-81
2022/09/12 02:17:06;;;;;;;21.77;19.40;;;13.00;99.90;;;;;;7394252;19;20053;-81
2022/09/12 02:19:46;;;;;;;22.17;19.98;;;13.00;99.90;;;;;;7398145;19;20501;-81
2022/09/12 02:22:15;;;;;;;22.13;19.83;;;13.00;99.90;;;;;;7393176;19;20009;-81
2022/09/12 02:24:46;;;;;;;22.35;20.05;;;12.90;99.90;;;;;;7396392;19;20014;-81
2022/09/12 02:27:42;;;;;;;23.08;20.67;;;13.00;99.90;;;;;;7396154;19;20550;-81
2022/09/12 02:30:09;;;;;;;22.80;20.48;;;13.00;99.90;;;;;;7394260;19;20078;-81
2022/09/12 02:33:05;;;;;;;23.23;20.83;;;13.00;99.90;;;;;;7391298;19;20021;-81
2022/09/12 02:35:43;;;;;;;21.23;19.23;;;13.00;99.90;;;;;;7396617;19;20018;-80
2022/09/12 02:38:14;;;;;;;22.30;20.13;;;13.00;99.90;;;;;;7396390;19;20014;-81
2022/09/12 02:40:40;;;;;;;22.92;20.58;;;13.00;99.90;;;;;;7395357;19;20007;-80
2022/09/12 02:43:06;;;;;;;22.25;20.13;;;13.00;99.90;;;;;;7395142;19;20023;-81
2022/09/12 02:45:34;;;;;;;23.67;21.17;;;13.00;99.90;;;;;;7392731;19;20011;-81
2022/09/12 02:48:11;;;;;;;22.83;20.55;;;13.00;99.90;;;;;;7396918;19;20011;-80
2022/09/12 02:50:37;;;;;;;23.63;21.23;;;13.10;99.90;;;;;;7395531;19;20014;-80
2022/09/12 02:53:05;;;;;;;23.45;21.15;;;13.00;99.90;;;;;;7397335;19;20051;-81
2022/09/12 02:55:33;;;;;;;23.75;21.35;;;13.10;99.90;;;;;;7394470;19;20035;-81
2022/09/12 02:58:02;;;;;;;24.58;22.05;;;13.10;99.90;;;;;;7395045;19;20017;-81
2022/09/12 03:00:43;;;;;;;23.95;21.60;;;13.00;99.90;;;;;;7393728;19;20408;-81
2022/09/12 03:03:24;;;;;;;23.60;21.15;;;13.00;99.90;;;;;;7393564;19;20018;-81
2022/09/12 03:06:04;;;;;;;23.83;21.50;;;13.00;99.90;;;;;;7395096;19;20014;-82
2022/09/12 03:09:11;;;;;;;25.20;22.67;;;12.90;99.90;;;;;;7394738;19;20010;-81
2022/09/12 03:11:36;;;;;;;24.35;21.85;;;12.90;99.90;;;;;;7395123;19;20039;-81
2022/09/12 03:14:08;;;;;;;24.77;22.23;;;12.90;99.90;;;;;;7393074;19;20014;-80
2022/09/12 03:17:02;;;;;;;24.73;22.15;;;12.90;99.90;;;;;;7394406;19;20101;-81
2022/09/12 03:19:42;;;;;;;24.88;22.35;;;12.90;99.90;;;;;;7398264;19;20014;-80
2022/09/12 03:22:40;;;;;;;25.00;22.50;;;12.80;99.90;;;;;;7393182;19;20011;-81
2022/09/12 03:25:21;;;;;;;25.75;22.95;;;12.80;99.90;;;;;;7392660;19;20007;-80
2022/09/12 03:28:00;;;;;;;25.48;22.95;;;12.70;99.90;;;;;;7396162;19;20021;-81
2022/09/12 03:30:26;;;;;;;26.40;23.48;;;12.70;99.90;;;;;;7393153;19;20010;-80
2022/09/12 03:32:54;;;;;;;23.13;20.65;;;12.70;99.90;;;;;;7394449;19;20084;-81
2022/09/12 03:35:23;;;;;;;26.52;23.73;;;12.70;99.90;;;;;;7395980;19;20017;-80
2022/09/12 03:37:50;;;;;;;29.88;25.00;;;12.70;99.90;;;;;;7393346;19;20086;-81
2022/09/12 03:40:16;;;;;;;26.10;23.08;;;12.70;99.90;;;;;;7394884;19;20011;-81
2022/09/12 03:42:42;;;;;;;29.45;25.20;;;12.70;99.90;;;;;;7391042;19;20013;-80
2022/09/12 03:45:09;;;;;;;28.15;24.67;;;12.70;99.90;;;;;;7390437;19;20353;-81
2022/09/12 03:47:39;;;;;;;26.30;23.48;;;12.70;99.90;;;;;;7391299;19;20011;-80
2022/09/12 03:50:05;;;;;;;24.88;21.70;;;12.70;99.90;;;;;;7393462;19;20026;-81
2022/09/12 03:52:31;;;;;;;23.73;21.33;;;12.70;99.90;;;;;;7396533;19;20015;-81
2022/09/12 03:54:57;;;;;;;24.90;22.20;;;12.70;99.90;;;;;;7390976;19;20543;-81
2022/09/12 03:57:23;;;;;;;26.92;21.98;;;12.70;99.90;;;;;;7394394;19;20050;-81
2022/09/12 03:59:49;;;;;;;28.75;24.10;;;12.60;99.90;;;;;;7396397;19;20022;-81
2022/09/12 04:02:15;;;;;;;25.65;22.90;;;12.60;99.90;;;;;;7389006;19;20109;-81
2022/09/12 04:04:42;;;;;;;28.33;25.15;;;12.60;99.90;;;;;;7391457;19;20023;-81
2022/09/12 04:07:09;;;;;;;31.38;25.85;;;12.60;99.90;;;;;;7391848;19;20015;-81
2022/09/12 04:09:35;;;;;;;24.13;21.67;;;12.60;99.90;;;;;;7395265;19;20015;-81
2022/09/12 04:12:02;;;;;;;30.48;27.10;;;12.60;99.90;;;;;;7394839;19;20047;-81
2022/09/12 04:14:27;;;;;;;31.10;27.70;;;12.60;99.90;;;;;;7395251;19;20015;-80
2022/09/12 04:16:53;;;;;;;26.75;23.88;;;12.60;99.90;;;;;;7393311;19;20684;-81
2022/09/12 04:19:19;;;;;;;26.70;23.75;;;12.70;99.90;;;;;;7393936;19;20022;-81
2022/09/12 04:21:45;;;;;;;29.10;25.13;;;12.70;99.90;;;;;;7395147;19;20011;-81
2022/09/12 04:24:10;;;;;;;32.15;28.10;;;12.80;99.90;;;;;;7393540;19;20019;-81
2022/09/12 04:26:36;;;;;;;35.53;29.58;;;12.80;99.90;;;;;;7392002;19;20026;-82
2022/09/12 04:29:02;;;;;;;35.40;29.55;;;12.80;99.90;;;;;;7392086;19;20010;-81
2022/09/12 04:31:28;;;;;;;36.63;30.30;;;12.80;99.90;;;;;;7393289;19;20022;-81
2022/09/12 04:33:59;;;;;;;35.72;30.33;;;12.70;99.90;;;;;;7394557;19;20007;-81
2022/09/12 04:36:26;;;;;;;38.40;31.30;;;12.70;99.90;;;;;;7391542;19;20025;-81
2022/09/12 04:38:52;;;;;;;35.40;31.55;;;12.70;99.90;;;;;;7392571;19;20078;-81
2022/09/12 04:41:22;;;;;;;44.22;34.42;;;12.70;99.90;;;;;;7390849;19;20022;-80
2022/09/12 04:43:52;;;;;;;38.47;31.80;;;12.80;99.90;;;;;;7394397;19;20035;-81
2022/09/12 04:46:19;;;;;;;39.15;31.88;;;12.70;99.90;;;;;;7394462;19;20018;-81
2022/09/12 04:48:46;;;;;;;40.25;32.58;;;12.70;99.90;;;;;;7399699;19;20471;-81
2022/09/12 04:51:15;;;;;;;44.08;34.30;;;12.60;99.90;;;;;;7399781;19;20363;-81
2022/09/12 04:53:45;;;;;;;42.25;33.55;;;12.60;99.90;;;;;;7400664;19;20018;-81
2022/09/12 04:56:11;;;;;;;42.65;33.35;;;12.60;99.90;;;;;;7398311;19;20128;-81
2022/09/12 04:58:37;;;;;;;49.92;36.45;;;12.50;99.90;;;;;;7401564;19;20017;-81
2022/09/12 05:01:09;;;;;;;48.35;35.22;;;12.50;99.90;;;;;;7400222;19;20015;-81
2022/09/12 05:03:37;;;;;;;48.38;36.33;;;12.50;99.90;;;;;;7399209;19;20018;-81
2022/09/12 05:06:06;;;;;;;47.47;35.60;;;12.50;99.90;;;;;;7393859;19;20039;-81
2022/09/12 05:08:33;;;;;;;48.13;35.75;;;12.50;99.90;;;;;;7401505;19;20036;-81
2022/09/12 05:11:04;;;;;;;52.92;38.70;;;12.50;99.90;;;;;;7398520;19;20075;-81
2022/09/12 05:13:30;;;;;;;47.97;36.97;;;12.50;99.90;;;;;;7399577;19;20035;-81
2022/09/12 05:16:01;;;;;;;51.15;39.40;;;12.60;99.90;;;;;;7396239;19;20400;-81
2022/09/12 05:18:27;;;;;;;50.85;37.95;;;12.60;99.90;;;;;;7401720;19;20006;-81
2022/09/12 05:20:54;;;;;;;38.80;31.63;;;12.70;99.90;;;;;;7396416;19;20113;-81
2022/09/12 05:23:20;;;;;;;49.63;38.20;;;12.70;99.90;;;;;;7393740;19;20011;-81
2022/09/12 05:25:51;;;;;;;47.22;36.10;;;12.80;99.90;;;;;;7399241;19;20018;-81
2022/09/12 05:28:19;;;;;;;45.05;34.28;;;12.90;99.90;;;;;;7398488;19;20464;-81
2022/09/12 05:30:45;;;;;;;47.85;37.78;;;12.90;99.90;;;;;;7397411;19;20011;-81
2022/09/12 05:33:12;;;;;;;49.00;37.08;;;12.90;99.90;;;;;;7398147;19;20010;-81
2022/09/12 05:35:39;;;;;;;42.25;34.05;;;13.00;99.90;;;;;;7397027;19;20097;-81
2022/09/12 05:38:06;;;;;;;42.45;36.15;;;13.10;99.90;;;;;;7397752;19;20010;-81
2022/09/12 05:40:33;;;;;;;47.75;37.60;;;13.20;99.90;;;;;;7397055;19;20035;-81
2022/09/12 05:42:59;;;;;;;51.33;37.78;;;13.30;99.90;;;;;;7397006;19;20073;-81
2022/09/12 05:45:25;;;;;;;49.95;35.78;;;13.30;99.90;;;;;;7396769;19;20019;-81
2022/09/12 05:47:55;;;;;;;48.05;37.20;;;13.40;99.90;;;;;;7397760;19;20019;-81
2022/09/12 05:50:22;;;;;;;47.78;35.47;;;13.50;99.90;;;;;;7398407;19;20484;-89
2022/09/12 05:52:47;;;;;;;170.90;58.80;;;13.70;99.90;;;;;;7398128;19;20021;-81
2022/09/12 05:55:13;;;;;;;66.25;43.45;;;13.90;99.90;;;;;;7396818;19;20018;-91
2022/09/12 05:57:44;;;;;;;30.42;23.25;;;14.20;99.90;;;;;;7394731;19;20465;-82
2022/09/12 06:00:12;;;;;;;39.03;32.08;;;14.40;99.90;;;;;;7398201;19;20040;-81
2022/09/12 06:02:38;;;;;;;40.70;31.33;;;14.80;99.90;;;;;;7399222;19;20022;-81
2022/09/12 06:05:04;;;;;;;26.95;18.90;;;15.00;99.90;;;;;;7398179;19;20049;-83
2022/09/12 06:07:31;;;;;;;37.85;28.02;;;15.10;99.90;;;;;;7395875;19;20043;-82
2022/09/12 06:09:58;;;;;;;22.70;18.80;;;15.10;99.90;;;;;;7223641;19;20044;-82
2022/09/12 06:12:27;;;;;;;39.33;32.53;;;15.10;99.90;;;;;;7394918;19;20006;-82
2022/09/12 06:14:53;;;;;;;37.15;31.83;;;15.20;99.90;;;;;;7396597;19;20088;-81
2022/09/12 06:17:19;;;;;;;35.30;30.52;;;15.20;99.90;;;;;;7396934;19;20014;-82
2022/09/12 06:19:45;;;;;;;38.63;31.63;;;15.30;99.90;;;;;;7396812;19;20027;-81
2022/09/12 06:22:18;;;;;;;39.53;31.35;;;15.20;99.90;;;;;;7395207;19;20018;-81
2022/09/12 06:24:43;;;;;;;12.43;10.73;;;15.20;99.90;;;;;;7395024;19;20022;-82
2022/09/12 06:27:09;;;;;;;25.30;22.20;;;15.30;99.90;;;;;;7394473;19;20006;-82
2022/09/12 06:29:35;;;;;;;15.45;12.73;;;15.30;99.90;;;;;;7396205;19;20528;-82
2022/09/12 06:32:01;;;;;;;38.30;32.67;;;15.30;99.90;;;;;;7397878;19;20096;-82
2022/09/12 06:34:27;;;;;;;42.58;34.25;;;15.30;99.90;;;;;;7395675;19;20011;-82
2022/09/12 06:36:53;;;;;;;40.22;32.55;;;15.20;99.90;;;;;;7392685;19;20010;-82
2022/09/12 06:39:21;;;;;;;37.05;30.52;;;15.30;99.90;;;;;;7394300;19;20344;-81
2022/09/12 06:41:51;;;;;;;40.40;33.92;;;15.30;99.90;;;;;;7393372;19;20019;-81
2022/09/12 06:44:19;;;;;;;41.60;33.92;;;15.30;99.90;;;;;;7394859;19;20024;-82
2022/09/12 06:46:46;;;;;;;41.95;34.08;;;15.40;99.90;;;;;;7392476;19;20021;-81
2022/09/12 06:49:12;;;;;;;42.88;35.58;;;15.60;99.90;;;;;;7397217;19;20018;-81
2022/09/12 06:51:40;;;;;;;38.70;31.92;;;15.60;99.90;;;;;;7398849;19;20011;-82
2022/09/12 06:54:06;;;;;;;40.28;31.50;;;15.60;99.90;;;;;;7399644;19;20014;-82
2022/09/12 06:56:33;;;;;;;43.80;34.75;;;15.70;99.90;;;;;;7394947;19;20092;-81
2022/09/12 06:58:58;;;;;;;44.10;34.90;;;15.60;99.90;;;;;;7394868;19;20018;-81
2022/09/12 07:01:27;;;;;;;46.22;35.17;;;15.50;99.90;;;;;;7397492;19;20388;-81
2022/09/12 07:03:55;;;;;;;46.45;35.17;;;15.60;99.90;;;;;;7395468;19;20011;-81
2022/09/12 07:06:24;;;;;;;42.47;33.75;;;15.70;99.90;;;;;;7391508;19;20022;-82
2022/09/12 07:08:50;;;;;;;47.47;35.35;;;15.70;99.90;;;;;;7393428;19;20014;-81
2022/09/12 07:11:19;;;;;;;43.50;34.63;;;15.70;99.90;;;;;;7396344;19;20074;-81
2022/09/12 07:13:48;;;;;;;47.80;37.63;;;15.80;99.90;;;;;;7392228;19;20100;-81
2022/09/12 07:16:15;;;;;;;52.83;38.20;;;15.80;99.90;;;;;;7395696;19;20035;-82
2022/09/12 07:18:41;;;;;;;51.78;39.90;;;15.80;99.90;;;;;;7391613;19;20019;-82
2022/09/12 07:21:10;;;;;;;52.60;39.58;;;15.80;99.90;;;;;;7394603;19;20011;-81
2022/09/12 07:23:37;;;;;;;47.33;36.60;;;15.90;99.90;;;;;;7389833;19;20015;-82
2022/09/12 07:26:03;;;;;;;53.00;38.83;;;16.00;99.90;;;;;;7395812;19;20011;-81
2022/09/12 07:28:31;;;;;;;18.75;14.60;;;16.20;99.90;;;;;;7392996;19;20014;-81
2022/09/12 07:30:57;;;;;;;30.05;23.10;;;16.40;99.90;;;;;;7395662;19;20570;-82
2022/09/12 07:33:26;;;;;;;31.23;24.25;;;16.50;99.90;;;;;;7393517;19;20882;-82
2022/09/12 07:35:53;;;;;;;45.50;34.42;;;16.60;99.90;;;;;;7392848;19;20015;-81
2022/09/12 07:38:20;;;;;;;51.90;37.70;;;16.80;99.90;;;;;;7391790;19;20018;-82
2022/09/12 07:40:46;;;;;;;48.78;36.40;;;16.90;99.90;;;;;;7390863;19;20015;-82
2022/09/12 07:43:12;;;;;;;51.88;38.92;;;17.00;99.90;;;;;;7393009;19;20031;-82
2022/09/12 07:45:40;;;;;;;44.55;32.80;;;16.90;99.90;;;;;;7395340;19;20019;-82
2022/09/12 07:48:09;;;;;;;57.17;39.80;;;16.80;99.90;;;;;;7392754;19;20030;-82
2022/09/12 07:50:35;;;;;;;52.65;37.00;;;16.90;99.90;;;;;;7393238;19;20039;-82
2022/09/12 07:53:03;;;;;;;17.23;13.23;;;16.80;99.90;;;;;;7389363;19;20028;-82
2022/09/12 07:55:29;;;;;;;48.08;33.88;;;16.90;99.90;;;;;;7390178;19;20051;-81
2022/09/12 07:57:55;;;;;;;37.20;27.42;;;17.20;99.90;;;;;;7391235;19;20015;-82
2022/09/12 08:00:21;;;;;;;17.70;13.77;;;17.20;99.90;;;;;;7394381;19;20015;-81
2022/09/12 08:02:52;;;;;;;33.15;25.17;;;17.40;99.90;;;;;;7394793;19;20367;-82
2022/09/12 08:05:22;;;;;;;17.85;13.95;;;17.50;99.90;;;;;;7393246;19;20053;-81
2022/09/12 08:07:48;;;;;;;41.05;31.70;;;17.70;99.90;;;;;;7391608;19;20018;-82
2022/09/12 08:10:15;;;;;;;48.72;35.47;;;17.70;99.90;;;;;;7390579;19;20082;-82
2022/09/12 08:12:41;;;;;;;29.00;21.80;;;17.90;99.90;;;;;;7395048;19;20027;-81
2022/09/12 08:15:07;;;;;;;43.85;33.15;;;18.00;99.90;;;;;;7391303;19;20014;-83
2022/09/12 08:17:33;;;;;;;47.88;34.80;;;18.00;99.90;;;;;;7390989;19;20018;-82
2022/09/12 08:19:59;;;;;;;41.22;30.80;;;18.00;99.90;;;;;;7396105;19;20014;-81
2022/09/12 08:22:25;;;;;;;41.28;31.90;;;18.10;99.90;;;;;;7401720;19;20034;-82
2022/09/12 08:24:51;;;;;;;42.80;31.73;;;18.00;99.90;;;;;;7403532;19;20074;-81
2022/09/12 08:27:17;;;;;;;21.55;14.60;;;17.90;99.90;;;;;;7399531;19;20014;-82
2022/09/12 08:29:42;;;;;;;28.55;21.30;;;17.90;99.90;;;;;;7401178;19;20014;-81
2022/09/12 08:32:08;;;;;;;16.92;13.02;;;17.90;99.90;;;;;;7399559;19;20030;-82
2022/09/12 08:34:34;;;;;;;39.30;29.27;;;17.90;99.90;;;;;;7401178;19;20023;-81
2022/09/12 08:37:00;;;;;;;43.40;31.60;;;18.00;99.90;;;;;;7397817;19;20342;-82
2022/09/12 08:39:26;;;;;;;20.80;16.60;;;18.00;99.90;;;;;;7399109;19;20504;-82
2022/09/12 08:42:04;;;;;;;43.50;32.08;;;18.10;99.90;;;;;;7400986;19;20349;-82
2022/09/12 08:44:44;;;;;;;30.95;21.98;;;18.30;99.90;;;;;;7399041;19;20010;-81
2022/09/12 08:47:31;;;;;;;34.40;27.02;;;18.40;99.90;;;;;;7401065;19;20018;-82
2022/09/12 08:50:09;;;;;;;23.45;18.58;;;18.60;99.90;;;;;;7399437;19;20070;-81
2022/09/12 08:52:51;;;;;;;32.47;25.50;;;18.70;99.90;;;;;;7398878;19;20011;-81
2022/09/12 08:55:43;;;;;;;23.77;17.58;;;18.70;99.90;;;;;;7402702;19;20038;-82
2022/09/12 08:58:18;;;;;;;23.33;17.70;;;18.80;99.90;;;;;;7397611;19;20061;-82
2022/09/12 09:01:10;;;;;;;31.17;22.92;;;18.80;99.90;;;;;;7384033;19;20026;-81
2022/09/12 09:03:39;;;;;;;24.13;20.40;;;18.90;99.90;;;;;;7395005;19;20019;-82
2022/09/12 09:06:08;;;;;;;10.85;8.65;;;18.80;99.90;;;;;;7397488;19;20022;-81
2022/09/12 09:08:52;;;;;;;13.52;10.45;;;18.90;99.90;;;;;;7398219;19;20023;-82
2022/09/12 09:11:36;;;;;;;25.77;19.98;;;18.90;99.90;;;;;;7398379;19;20515;-82
2022/09/12 09:16:58;;;;;;;24.45;19.55;;;19.10;99.90;;;;;;7397498;19;20018;-82
2022/09/12 09:19:33;;;;;;;21.00;15.45;;;19.10;99.90;;;;;;7396810;19;20015;-82
2022/09/12 09:22:01;;;;;;;20.05;15.75;;;19.20;99.90;;;;;;7394657;19;20011;-82
2022/09/12 09:24:40;;;;;;;15.43;12.88;;;19.40;99.90;;;;;;7398305;19;20011;-82
2022/09/12 09:27:25;;;;;;;8.10;6.30;;;19.60;99.90;;;;;;7397922;19;20013;-82
2022/09/12 09:29:54;;;;;;;24.27;17.52;;;19.70;99.90;;;;;;7398004;19;20019;-82
2022/09/12 09:32:37;;;;;;;17.58;15.10;;;19.80;99.90;;;;;;7400112;19;20014;-81
2022/09/12 09:35:14;;;;;;;;;;;19.80;99.90;;;;;;7397542;19;20528;-82
2022/09/12 09:38:01;;;;;;;8.75;7.85;;;19.80;99.90;;;;;;7398535;19;19925;-82
2022/09/12 09:40:42;;;;;;;20.25;15.55;;;19.90;99.90;;;;;;7400941;19;20507;-82
2022/09/12 09:43:28;;;;;;;17.20;13.63;;;20.10;99.90;;;;;;7396725;19;20014;-82
2022/09/12 09:45:56;;;;;;;10.95;9.10;;;20.10;99.90;;;;;;7393995;19;20333;-82
2022/09/12 09:48:26;;;;;;;12.95;10.55;;;20.20;99.90;;;;;;7396920;19;20021;-82
2022/09/12 09:50:52;;;;;;;10.10;7.72;;;20.20;99.90;;;;;;7401976;19;20023;-82
2022/09/12 09:53:45;;;;;;;14.57;11.32;;;20.20;99.90;;;;;;7396132;19;20022;-82
2022/09/12 09:56:20;;;;;;;11.63;10.30;;;20.20;99.90;;;;;;7398870;19;20011;-82
2022/09/12 09:58:46;;;;;;;10.73;8.68;;;20.20;99.90;;;;;;7396020;19;20015;-82
2022/09/12 10:01:18;;;;;;;17.05;12.43;;;20.20;99.90;;;;;;7399281;19;20027;-82
2022/09/12 10:03:55;;;;;;;13.82;11.15;;;20.10;99.90;;;;;;7400172;19;20470;-82
2022/09/12 10:06:25;;;;;;;11.45;7.82;;;20.10;99.90;;;;;;7395885;19;20010;-82
2022/09/12 10:09:07;;;;;;;11.63;9.48;;;20.00;99.90;;;;;;7395969;19;20014;-82
2022/09/12 10:11:40;;;;;;;13.20;11.18;;;20.10;99.90;;;;;;7400179;19;20015;-81
2022/09/12 10:14:36;;;;;;;16.73;12.77;;;20.00;99.90;;;;;;7395717;19;20099;-81
2022/09/12 10:17:31;;;;;;;19.08;15.05;;;20.00;99.90;;;;;;7396451;19;20039;-80
2022/09/12 10:19:58;;;;;;;20.23;13.73;;;20.30;99.90;;;;;;7394756;19;20015;-80
2022/09/12 10:22:28;;;;;;;14.13;10.57;;;20.50;99.90;;;;;;7396888;19;20022;-80
2022/09/12 10:25:00;;;;;;;23.42;17.50;;;20.60;99.90;;;;;;7393118;19;20043;-84
2022/09/12 10:27:34;;;;;;;24.63;19.08;;;20.80;99.90;;;;;;7399194;19;20070;-80
2022/09/12 10:30:18;;;;;;;19.08;15.27;;;20.90;99.90;;;;;;7395899;19;20021;-81
2022/09/12 10:32:49;;;;;;;22.35;17.48;;;21.00;99.90;;;;;;7393892;19;20014;-80
2022/09/12 10:35:29;;;;;;;23.08;16.23;;;21.10;99.90;;;;;;7391838;19;20026;-81
2022/09/12 10:38:01;;;;;;;27.70;21.88;;;21.20;99.90;;;;;;7396669;19;20022;-79
2022/09/12 10:40:31;;;;;;;25.27;19.88;;;21.20;99.90;;;;;;7396876;19;20372;-82
2022/09/12 10:43:01;;;;;;;28.38;20.15;;;21.30;99.90;;;;;;7395175;19;20014;-81
2022/09/12 10:45:34;;;;;;;29.52;22.17;;;21.40;99.90;;;;;;7391733;19;20078;-81
2022/09/12 10:48:03;;;;;;;34.50;23.65;;;21.60;99.90;;;;;;7396731;19;20018;-81
2022/09/12 10:50:40;;;;;;;26.20;18.63;;;21.70;99.90;;;;;;7394326;19;20014;-81
2022/09/12 10:53:21;;;;;;;29.48;21.13;;;21.80;99.90;;;;;;7396845;19;20040;-81
2022/09/12 10:56:17;;;;;;;31.40;22.85;;;22.00;99.90;;;;;;7393751;19;20014;-81
2022/09/12 10:59:04;;;;;;;34.78;25.25;;;22.10;99.90;;;;;;7395655;19;20018;-80
2022/09/12 11:01:59;;;;;;;32.35;23.30;;;22.30;99.90;;;;;;7393903;19;20574;-81
2022/09/12 11:04:54;;;;;;;34.38;24.63;;;22.20;99.90;;;;;;7392167;19;20036;-80
2022/09/12 11:07:34;;;;;;;28.63;21.17;;;22.20;99.90;;;;;;7393033;19;20082;-80
2022/09/12 11:10:18;;;;;;;27.58;21.27;;;22.40;99.90;;;;;;7393210;19;20014;-81
2022/09/12 11:12:57;;;;;;;33.03;23.70;;;22.50;99.90;;;;;;7395594;19;20038;-81
2022/09/12 11:15:32;;;;;;;34.83;24.52;;;22.50;99.90;;;;;;7393720;19;20019;-82
2022/09/12 11:18:42;;;;;;;32.53;22.08;;;22.50;99.90;;;;;;7390452;19;20015;-81
2022/09/12 11:21:18;;;;;;;19.38;14.02;;;22.50;99.90;;;;;;7394045;19;20014;-81
2022/09/12 11:23:59;;;;;;;29.88;21.33;;;22.50;99.90;;;;;;7392168;19;20014;-81
2022/09/12 11:26:44;;;;;;;24.33;17.20;;;22.50;99.90;;;;;;7391010;19;20015;-80
2022/09/12 11:29:58;;;;;;;26.02;18.70;;;22.60;99.90;;;;;;7388460;19;20408;-80
2022/09/12 11:32:43;;;;;;;25.77;19.67;;;22.70;99.90;;;;;;7391684;19;20085;-80
2022/09/12 11:35:16;;;;;;;21.77;15.07;;;22.80;99.90;;;;;;7395813;19;20529;-80
2022/09/12 11:38:01;;;;;;;25.08;17.15;;;23.00;99.90;;;;;;7392892;19;20579;-80
2022/09/12 11:40:39;;;;;;;22.83;17.08;;;23.00;99.90;;;;;;7396412;19;20074;-80
2022/09/12 11:43:17;;;;;;;22.15;16.20;;;23.00;99.90;;;;;;7394399;19;20015;-80
2022/09/12 11:45:44;;;;;;;22.63;16.02;;;23.10;99.90;;;;;;7394823;19;20014;-81
2022/09/12 11:48:34;;;;;;;23.25;17.58;;;23.20;99.90;;;;;;7394290;19;20010;-80
2022/09/12 11:51:03;;;;;;;21.45;14.93;;;23.20;99.90;;;;;;7393083;19;20043;-81
2022/09/12 11:53:37;;;;;;;24.70;14.63;;;23.20;99.90;;;;;;7394616;19;20062;-80
2022/09/12 11:56:15;;;;;;;21.33;15.18;;;23.30;99.90;;;;;;7392780;19;20511;-80
2022/09/12 11:58:45;;;;;;;20.52;15.23;;;23.30;99.90;;;;;;7392978;19;20433;-80
2022/09/12 12:01:14;;;;;;;22.40;15.02;;;23.30;99.90;;;;;;7394715;19;20081;-80
2022/09/12 12:03:45;;;;;;;19.05;13.18;;;23.20;99.90;;;;;;7394269;19;20019;-80
2022/09/12 12:06:33;;;;;;;18.38;13.35;;;23.30;99.90;;;;;;7391608;19;20613;-81
2022/09/12 12:08:59;;;;;;;16.17;12.30;;;23.40;99.90;;;;;;7391694;19;20010;-80
2022/09/12 12:11:37;;;;;;;15.05;10.98;;;23.40;99.90;;;;;;7393045;19;20035;-80
2022/09/12 12:14:18;;;;;;;15.70;11.50;;;23.50;99.90;;;;;;7391171;19;20031;-80
2022/09/12 12:16:44;;;;;;;18.00;12.30;;;23.50;99.90;;;;;;7392068;19;20007;-80
2022/09/12 12:19:13;;;;;;;16.67;11.73;;;23.50;99.90;;;;;;7390591;19;20010;-80
2022/09/12 12:21:45;;;;;;;19.73;14.45;;;23.60;99.90;;;;;;7390019;19;20006;-80
2022/09/12 12:24:14;;;;;;;17.48;12.52;;;23.60;99.90;;;;;;7396217;19;20014;-79
2022/09/12 12:26:40;;;;;;;20.20;13.20;;;23.50;99.90;;;;;;7388656;19;20018;-80
2022/09/12 12:29:12;;;;;;;20.55;15.38;;;23.40;99.90;;;;;;7391178;19;20636;-80
2022/09/12 12:32:00;;;;;;;15.20;11.10;;;23.40;99.90;;;;;;7389458;19;20040;-80
2022/09/12 12:34:41;;;;;;;19.85;14.27;;;23.30;99.90;;;;;;7389988;19;20014;-80
2022/09/12 12:37:24;;;;;;;13.50;10.40;;;23.40;99.90;;;;;;7390765;19;20048;-80
2022/09/12 12:39:59;;;;;;;21.38;15.65;;;23.40;99.90;;;;;;7393977;19;20010;-80
2022/09/12 12:42:31;;;;;;;18.08;12.50;;;23.40;99.90;;;;;;7394629;19;20018;-80
2022/09/12 12:44:58;;;;;;;20.30;15.68;;;23.40;99.90;;;;;;7393701;19;20043;-81
2022/09/12 12:47:30;;;;;;;21.75;15.45;;;23.40;99.90;;;;;;7391127;19;20028;-80
2022/09/12 12:50:19;;;;;;;13.13;10.57;;;23.40;99.90;;;;;;7393473;19;20484;-80
2022/09/12 12:52:55;;;;;;;15.93;11.55;;;23.50;99.90;;;;;;7394068;19;20839;-80
2022/09/12 12:55:31;;;;;;;16.10;11.88;;;23.50;99.90;;;;;;7383676;19;20020;-80
2022/09/12 12:57:58;;;;;;;15.20;11.85;;;23.50;99.90;;;;;;7382178;19;20014;-79
2022/09/12 13:00:38;;;;;;;18.35;13.07;;;23.60;99.90;;;;;;7384217;19;20019;-80